createdAt,value
2019-03-05T00:01:34.753Z,98726.25
2019-03-05T00:03:08.407Z,98728.44
2019-03-05T00:04:42.798Z,98740.69
2019-03-05T00:06:16.733Z,98730.20
2019-03-05T00:07:50.379Z,98722.16
2019-03-05T00:09:24.659Z,98734.45
2019-03-05T00:10:58.336Z,98728.98
2019-03-05T00:12:32.145Z,98728.15
2019-03-05T00:14:05.785Z,98732.58
2019-03-05T00:15:39.494Z,98739.12
2019-03-05T00:17:13.200Z,98735.31
2019-03-05T00:18:47.343Z,98734.40
2019-03-05T00:20:21.507Z,98736.91
2019-03-05T00:21:55.266Z,98728.03
2019-03-05T00:23:53.300Z,98729.60
2019-03-05T00:25:29.868Z,98731.80
2019-03-05T00:27:03.525Z,98731.46
2019-03-05T00:29:02.248Z,98730.75
2019-03-05T00:30:51.145Z,98736.30
2019-03-05T00:32:24.862Z,98738.39
2019-03-05T00:34:18.354Z,98734.75
2019-03-05T00:36:09.808Z,98720.53
2019-03-05T00:37:46.907Z,98722.20
2019-03-05T00:39:28.017Z,98716.66
2019-03-05T00:41:04.590Z,98722.27
2019-03-05T00:43:03.035Z,98717.30
2019-03-05T00:45:09.290Z,98712.33
2019-03-05T00:46:48.762Z,98717.22
2019-03-05T00:48:41.776Z,98718.50
2019-03-05T00:50:41.192Z,98713.91
2019-03-05T00:52:20.866Z,98713.20
2019-03-05T00:54:06.438Z,98711.67
2019-03-05T00:55:52.508Z,98715.78
2019-03-05T00:57:38.292Z,98712.11
2019-03-05T00:59:20.730Z,98715.63
2019-03-05T01:01:03.694Z,98708.93
2019-03-05T01:02:59.159Z,98715.30
2019-03-05T01:04:59.735Z,98712.52
2019-03-05T01:06:33.635Z,98711.30
2019-03-05T01:08:07.800Z,98704.60
2019-03-05T01:09:42.205Z,98700.18
2019-03-05T01:11:17.141Z,98699.42
2019-03-05T01:12:51.070Z,98699.36
2019-03-05T01:14:25.700Z,98694.45
2019-03-05T01:15:59.832Z,98702.20
2019-03-05T01:17:33.565Z,98699.67
2019-03-05T01:19:07.399Z,98697.03
2019-03-05T01:20:41.099Z,98706.05
2019-03-05T01:22:14.852Z,98695.70
2019-03-05T01:23:49.052Z,98697.08
2019-03-05T01:25:32.014Z,98682.30
2019-03-05T01:27:05.763Z,98684.34
2019-03-05T01:28:39.399Z,98684.58
2019-03-05T01:30:16.049Z,98668.95
2019-03-05T01:31:52.311Z,98671.38
2019-03-05T01:33:27.690Z,98665.18
2019-03-05T01:35:05.894Z,98666.06
2019-03-05T01:36:53.718Z,98678.26
2019-03-05T01:38:28.683Z,98683.37
2019-03-05T01:40:04.553Z,98674.55
2019-03-05T01:41:38.205Z,98678.53
2019-03-05T01:43:12.289Z,98675.37
2019-03-05T01:44:46.054Z,98676.09
2019-03-05T01:46:19.785Z,98673.00
2019-03-05T01:47:54.127Z,98672.78
2019-03-05T01:49:28.102Z,98664.09
2019-03-05T01:51:01.800Z,98667.56
2019-03-05T01:52:35.433Z,98668.12
2019-03-05T01:54:09.993Z,98658.36
2019-03-05T01:55:44.413Z,98649.86
2019-03-05T01:57:18.143Z,98656.42
2019-03-05T01:58:51.844Z,98659.83
2019-03-05T02:00:27.023Z,98660.27
2019-03-05T02:02:01.135Z,98647.68
2019-03-05T02:03:34.814Z,98651.63
2019-03-05T02:05:09.246Z,98653.66
2019-03-05T02:06:42.886Z,98651.20
2019-03-05T02:08:17.050Z,98651.06
2019-03-05T02:09:50.783Z,98645.86
2019-03-05T02:11:24.931Z,98649.03
2019-03-05T02:12:58.569Z,98653.17
2019-03-05T02:14:33.887Z,98655.05
2019-03-05T02:16:07.518Z,98657.71
2019-03-05T02:17:41.173Z,98656.22
2019-03-05T02:19:44.886Z,98656.26
2019-03-05T02:21:18.680Z,98654.48
2019-03-05T02:22:58.457Z,98645.07
2019-03-05T02:24:44.182Z,98652.83
2019-03-05T02:26:42.362Z,98661.02
2019-03-05T02:28:18.979Z,98663.61
2019-03-05T02:29:55.609Z,98648.67
2019-03-05T02:31:32.317Z,98641.75
2019-03-05T02:33:18.248Z,98644.91
2019-03-05T02:35:06.554Z,98646.75
2019-03-05T02:37:18.083Z,98637.86
2019-03-05T02:38:57.705Z,98639.63
2019-03-05T02:40:43.547Z,98645.19
2019-03-05T02:42:22.768Z,98641.00
2019-03-05T02:44:02.460Z,98634.19
2019-03-05T02:45:54.044Z,98635.63
2019-03-05T02:47:48.009Z,98643.73
2019-03-05T02:49:39.634Z,98648.59
2019-03-05T02:51:24.946Z,98658.51
2019-03-05T02:53:04.324Z,98658.47
2019-03-05T02:55:01.796Z,98643.56
2019-03-05T02:56:47.465Z,98637.22
2019-03-05T02:58:19.876Z,98628.22
2019-03-05T02:59:53.564Z,98626.87
2019-03-05T03:01:34.770Z,98629.17
2019-03-05T03:03:10.092Z,98622.56
2019-03-05T03:04:45.354Z,98622.19
2019-03-05T03:06:20.690Z,98621.08
2019-03-05T03:07:56.258Z,98619.09
2019-03-05T03:09:32.896Z,98625.19
2019-03-05T03:11:06.618Z,98637.98
2019-03-05T03:12:41.279Z,98632.38
2019-03-05T03:14:15.590Z,98629.52
2019-03-05T03:15:49.289Z,98625.70
2019-03-05T03:17:22.950Z,98617.05
2019-03-05T03:18:56.634Z,98610.52
2019-03-05T03:20:30.748Z,98591.66
2019-03-05T03:22:04.469Z,98588.88
2019-03-05T03:23:38.182Z,98591.43
2019-03-05T03:25:14.825Z,98587.36
2019-03-05T03:26:48.912Z,98600.16
2019-03-05T03:28:22.748Z,98609.79
2019-03-05T03:29:56.450Z,98609.08
2019-03-05T03:31:30.172Z,98612.78
2019-03-05T03:33:05.652Z,98614.83
2019-03-05T03:34:39.316Z,98611.72
2019-03-05T03:36:12.938Z,98613.34
2019-03-05T03:37:48.141Z,98614.55
2019-03-05T03:39:24.127Z,98611.25
2019-03-05T03:40:57.449Z,98610.75
2019-03-05T03:42:31.167Z,98606.98
2019-03-05T03:44:05.512Z,98616.35
2019-03-05T03:45:39.610Z,98618.38
2019-03-05T03:47:13.261Z,98617.65
2019-03-05T03:48:48.089Z,98617.30
2019-03-05T03:50:21.794Z,98617.99
2019-03-05T03:51:56.852Z,98621.23
2019-03-05T03:53:30.490Z,98616.17
2019-03-05T03:55:04.757Z,98618.19
2019-03-05T03:56:38.405Z,98617.47
2019-03-05T03:58:12.768Z,98622.95
2019-03-05T03:59:48.182Z,98628.98
2019-03-05T04:01:21.832Z,98631.37
2019-03-05T04:02:55.511Z,98633.48
2019-03-05T04:04:29.504Z,98632.31
2019-03-05T04:06:03.199Z,98631.08
2019-03-05T04:07:36.910Z,98630.76
2019-03-05T04:09:13.045Z,98632.64
2019-03-05T04:10:47.262Z,98638.70
2019-03-05T04:12:20.935Z,98648.47
2019-03-05T04:13:54.667Z,98641.61
2019-03-05T04:15:29.880Z,98643.11
2019-03-05T04:17:03.981Z,98649.48
2019-03-05T04:18:38.753Z,98661.52
2019-03-05T04:20:16.361Z,98659.39
2019-03-05T04:21:50.075Z,98660.61
2019-03-05T04:23:28.737Z,98661.25
2019-03-05T04:25:02.451Z,98665.88
2019-03-05T04:26:36.172Z,98672.27
2019-03-05T04:28:10.611Z,98672.52
2019-03-05T04:29:44.504Z,98674.52
2019-03-05T04:31:18.522Z,98677.85
2019-03-05T04:32:52.179Z,98675.08
2019-03-05T04:34:25.884Z,98672.27
2019-03-05T04:35:59.914Z,98674.20
2019-03-05T04:37:33.684Z,98654.95
2019-03-05T04:39:10.271Z,98675.61
2019-03-05T04:40:44.019Z,98669.86
2019-03-05T04:42:18.089Z,98673.58
2019-03-05T04:43:51.853Z,98685.78
2019-03-05T04:45:41.401Z,98684.55
2019-03-05T04:47:15.574Z,98685.19
2019-03-05T04:48:51.421Z,98684.19
2019-03-05T04:50:29.672Z,98687.27
2019-03-05T04:52:11.228Z,98688.44
2019-03-05T04:53:44.849Z,98676.76
2019-03-05T04:55:19.002Z,98681.16
2019-03-05T04:56:52.644Z,98687.63
2019-03-05T04:58:26.271Z,98687.79
2019-03-05T05:00:00.039Z,98678.89
2019-03-05T05:01:33.998Z,98685.90
2019-03-05T05:03:07.626Z,98694.30
2019-03-05T05:04:41.355Z,98696.75
2019-03-05T05:06:16.602Z,98706.63
2019-03-05T05:07:50.715Z,98701.42
2019-03-05T05:09:24.425Z,98697.14
2019-03-05T05:10:58.086Z,98699.69
2019-03-05T05:12:31.849Z,98704.99
2019-03-05T05:14:06.001Z,98705.72
2019-03-05T05:15:39.762Z,98705.61
2019-03-05T05:17:13.536Z,98703.30
2019-03-05T05:18:47.267Z,98714.14
2019-03-05T05:20:21.227Z,98715.51
2019-03-05T05:21:56.371Z,98712.38
2019-03-05T05:23:30.133Z,98720.59
2019-03-05T05:25:04.826Z,98729.56
2019-03-05T05:26:38.833Z,98732.26
2019-03-05T05:28:12.528Z,98724.76
2019-03-05T05:29:46.226Z,98730.88
2019-03-05T05:31:19.984Z,98733.86
2019-03-05T05:32:53.828Z,98730.46
2019-03-05T05:34:27.516Z,98732.84
2019-03-05T05:36:01.224Z,98726.84
2019-03-05T05:37:34.989Z,98724.45
2019-03-05T05:39:27.961Z,98730.11
2019-03-05T05:41:01.659Z,98728.06
2019-03-05T05:42:35.406Z,98739.73
2019-03-05T05:44:09.109Z,98743.19
2019-03-05T05:45:47.979Z,98738.60
2019-03-05T05:47:21.677Z,98742.36
2019-03-05T05:48:55.979Z,98740.03
2019-03-05T05:50:29.688Z,98739.11
2019-03-05T05:52:03.576Z,98741.91
2019-03-05T05:53:38.813Z,98738.39
2019-03-05T05:55:12.460Z,98741.98
2019-03-05T05:56:46.150Z,98752.13
2019-03-05T05:58:20.148Z,98749.58
2019-03-05T05:59:54.368Z,98749.42
2019-03-05T06:01:28.114Z,98756.18
2019-03-05T06:03:01.815Z,98759.27
2019-03-05T06:04:35.710Z,98768.13
2019-03-05T06:06:10.033Z,98771.15
2019-03-05T06:07:44.403Z,98776.05
2019-03-05T06:09:18.706Z,98771.72
2019-03-05T06:10:53.391Z,98767.92
2019-03-05T06:12:27.159Z,98763.51
2019-03-05T06:14:01.415Z,98766.53
2019-03-05T06:15:35.718Z,98740.77
2019-03-05T06:17:10.419Z,98773.17
2019-03-05T06:18:44.805Z,98772.69
2019-03-05T06:20:19.136Z,98771.88
2019-03-05T06:21:53.508Z,98766.22
2019-03-05T06:23:28.213Z,98768.06
2019-03-05T06:25:02.546Z,98765.89
2019-03-05T06:26:36.985Z,98764.52
2019-03-05T06:28:11.319Z,98776.11
2019-03-05T06:29:46.081Z,98769.47
2019-03-05T06:31:20.326Z,98773.23
2019-03-05T06:32:54.558Z,98774.83
2019-03-05T06:34:28.870Z,98771.44
2019-03-05T06:36:03.506Z,98768.13
2019-03-05T06:37:37.813Z,98764.98
2019-03-05T06:39:12.139Z,98770.06
2019-03-05T06:40:46.396Z,98766.97
2019-03-05T06:42:21.037Z,98770.59
2019-03-05T06:43:55.299Z,98767.00
2019-03-05T06:45:29.553Z,98774.18
2019-03-05T06:47:03.863Z,98773.70
2019-03-05T06:48:38.410Z,98773.22
2019-03-05T06:50:15.414Z,98777.74
2019-03-05T06:51:51.246Z,98774.16
2019-03-05T06:53:27.331Z,98778.20
2019-03-05T06:55:01.802Z,98785.70
2019-03-05T06:56:36.155Z,98783.98
2019-03-05T06:58:11.887Z,98786.97
2019-03-05T06:59:46.427Z,98799.05
2019-03-05T07:01:20.847Z,98797.35
2019-03-05T07:02:55.167Z,98804.85
2019-03-05T07:04:29.384Z,98804.86
2019-03-05T07:06:40.158Z,98803.62
2019-03-05T07:08:14.862Z,98808.33
2019-03-05T07:09:59.572Z,98814.75
2019-03-05T07:11:49.309Z,98813.41
2019-03-05T07:13:25.577Z,98814.86
2019-03-05T07:15:21.300Z,98820.00
2019-03-05T07:17:02.801Z,98826.74
2019-03-05T07:18:40.460Z,98831.03
2019-03-05T07:20:32.977Z,98818.77
2019-03-05T07:22:16.189Z,98805.56
2019-03-05T07:24:02.422Z,98805.77
2019-03-05T07:25:36.731Z,98800.80
2019-03-05T07:27:10.975Z,98808.88
2019-03-05T07:28:45.317Z,98804.69
2019-03-05T07:30:19.662Z,98813.97
2019-03-05T07:31:54.003Z,98814.70
2019-03-05T07:33:28.256Z,98811.52
2019-03-05T07:35:02.848Z,98818.38
2019-03-05T07:36:37.082Z,98812.80
2019-03-05T07:38:11.379Z,98812.64
2019-03-05T07:39:45.960Z,98810.19
2019-03-05T07:41:21.071Z,98814.20
2019-03-05T07:42:55.304Z,98816.78
2019-03-05T07:44:30.993Z,98807.14
2019-03-05T07:46:05.301Z,98805.99
2019-03-05T07:47:39.811Z,98805.62
2019-03-05T07:49:14.097Z,98808.70
2019-03-05T07:50:48.358Z,98810.77
2019-03-05T07:52:22.709Z,98815.97
2019-03-05T07:53:57.181Z,98824.14
2019-03-05T07:55:31.781Z,98830.44
2019-03-05T07:57:05.990Z,98828.25
2019-03-05T07:58:40.337Z,98833.32
2019-03-05T08:00:17.324Z,98824.96
2019-03-05T08:01:51.526Z,98818.23
2019-03-05T08:03:25.789Z,98820.91
2019-03-05T08:05:00.102Z,98827.20
2019-03-05T08:06:34.697Z,98823.16
2019-03-05T08:08:45.323Z,98827.46
2019-03-05T08:10:28.343Z,98823.23
2019-03-05T08:12:22.356Z,98818.13
2019-03-05T08:14:20.450Z,98828.33
2019-03-05T08:16:15.606Z,98814.66
2019-03-05T08:17:50.343Z,98820.26
2019-03-05T08:19:24.625Z,98822.55
2019-03-05T08:20:58.931Z,98816.52
2019-03-05T08:22:33.329Z,98816.95
2019-03-05T08:24:08.103Z,98829.59
2019-03-05T08:25:42.447Z,98816.39
2019-03-05T08:27:16.740Z,98828.26
2019-03-05T08:28:51.051Z,98828.70
2019-03-05T08:30:25.445Z,98823.02
2019-03-05T08:31:59.681Z,98826.17
2019-03-05T08:33:34.000Z,98823.67
2019-03-05T08:35:10.298Z,98816.45
2019-03-05T08:36:44.853Z,98823.59
2019-03-05T08:38:19.114Z,98829.90
2019-03-05T08:39:53.506Z,98824.76
2019-03-05T08:41:27.864Z,98821.90
2019-03-05T08:43:02.910Z,98825.30
2019-03-05T08:44:49.700Z,98826.11
2019-03-05T08:46:14.646Z,98818.33
2019-03-05T08:47:49.000Z,98816.27
2019-03-05T08:49:23.439Z,98819.19
2019-03-05T08:50:57.721Z,98812.01
2019-03-05T08:52:32.020Z,98812.78
2019-03-05T08:54:07.829Z,98811.05
2019-03-05T08:55:42.422Z,98807.28
2019-03-05T08:57:16.686Z,98810.31
2019-03-05T08:58:51.283Z,98810.98
2019-03-05T09:00:25.521Z,98813.03
2019-03-05T09:01:59.994Z,98813.45
2019-03-05T09:03:34.221Z,98808.88
2019-03-05T09:05:11.043Z,98804.35
2019-03-05T09:06:45.435Z,98800.70
2019-03-05T09:08:20.285Z,98796.97
2019-03-05T09:09:54.608Z,98797.91
2019-03-05T09:11:29.562Z,98797.67
2019-03-05T09:13:04.765Z,98801.68
2019-03-05T09:14:39.891Z,98793.35
2019-03-05T09:16:14.117Z,98796.11
2019-03-05T09:17:48.552Z,98793.72
2019-03-05T09:19:22.826Z,98795.00
2019-03-05T09:20:57.539Z,98790.06
2019-03-05T09:22:31.838Z,98790.62
2019-03-05T09:24:06.065Z,98795.19
2019-03-05T09:25:40.411Z,98790.34
2019-03-05T09:27:15.099Z,98791.70
2019-03-05T09:28:49.331Z,98789.37
2019-03-05T09:30:24.470Z,98786.50
2019-03-05T09:31:58.672Z,98785.91
2019-03-05T09:33:33.548Z,98783.92
2019-03-05T09:35:10.731Z,98777.84
2019-03-05T09:36:50.896Z,98780.10
2019-03-05T09:38:20.883Z,98776.64
2019-03-05T09:39:55.402Z,98773.44
2019-03-05T09:41:29.718Z,98779.45
2019-03-05T09:43:03.931Z,98766.98
2019-03-05T09:44:38.240Z,98766.10
2019-03-05T09:46:13.262Z,98760.03
2019-03-05T09:47:47.544Z,98767.23
2019-03-05T09:49:21.826Z,98768.08
2019-03-05T09:50:56.070Z,98767.17
2019-03-05T09:52:30.641Z,98760.93
2019-03-05T09:54:05.524Z,98758.27
2019-03-05T09:55:39.792Z,98762.22
2019-03-05T09:57:14.176Z,98763.76
2019-03-05T09:58:48.631Z,98760.95
2019-03-05T10:00:24.930Z,98768.91
2019-03-05T10:01:59.725Z,98762.78
2019-03-05T10:03:35.587Z,98772.02
2019-03-05T10:05:13.089Z,98759.89
2019-03-05T10:06:47.404Z,98771.42
2019-03-05T10:08:32.044Z,98765.52
2019-03-05T10:09:57.634Z,98760.77
2019-03-05T10:11:32.256Z,98766.79
2019-03-05T10:13:06.794Z,98760.84
2019-03-05T10:14:41.102Z,98768.18
2019-03-05T10:16:16.963Z,98754.06
2019-03-05T10:17:53.788Z,98760.13
2019-03-05T10:19:28.113Z,98767.14
2019-03-05T10:21:03.580Z,98762.28
2019-03-05T10:22:37.746Z,98757.86
2019-03-05T10:24:12.388Z,98754.93
2019-03-05T10:25:46.640Z,98761.73
2019-03-05T10:27:20.936Z,98762.45
2019-03-05T10:28:55.218Z,98755.89
2019-03-05T10:30:35.084Z,98764.13
2019-03-05T10:32:10.224Z,98744.09
2019-03-05T10:33:45.070Z,98760.20
2019-03-05T10:35:20.755Z,98759.20
2019-03-05T10:36:56.910Z,98757.50
2019-03-05T10:38:32.456Z,98755.91
2019-03-05T10:40:12.745Z,98755.59
2019-03-05T10:41:46.976Z,98758.02
2019-03-05T10:43:21.835Z,98757.50
2019-03-05T10:44:56.120Z,98766.06
2019-03-05T10:46:30.397Z,98756.83
2019-03-05T10:48:04.796Z,98755.89
2019-03-05T10:49:39.584Z,98755.89
2019-03-05T10:51:13.809Z,98771.12
2019-03-05T10:52:48.294Z,98758.93
2019-03-05T10:54:22.600Z,98761.13
2019-03-05T10:55:57.106Z,98756.73
2019-03-05T10:57:31.434Z,98765.83
2019-03-05T10:59:05.842Z,98755.89
2019-03-05T11:00:45.521Z,98758.25
2019-03-05T11:02:21.341Z,98756.89
2019-03-05T11:03:55.983Z,98753.56
2019-03-05T11:05:33.662Z,98756.30
2019-03-05T11:07:07.863Z,98756.69
2019-03-05T11:08:42.490Z,98755.19
2019-03-05T11:10:18.257Z,98770.31
2019-03-05T11:11:52.455Z,98772.33
2019-03-05T11:13:26.722Z,98774.30
2019-03-05T11:15:02.548Z,98768.09
2019-03-05T11:16:36.844Z,98768.72
2019-03-05T11:18:11.854Z,98764.59
2019-03-05T11:19:46.134Z,98760.77
2019-03-05T11:21:21.267Z,98763.06
2019-03-05T11:22:55.485Z,98747.79
2019-03-05T11:24:29.713Z,98754.47
2019-03-05T11:26:04.083Z,98748.14
2019-03-05T11:27:38.641Z,98745.62
2019-03-05T11:29:12.870Z,98744.33
2019-03-05T11:30:47.262Z,98748.96
2019-03-05T11:32:21.591Z,98752.57
2019-03-05T11:33:56.045Z,98750.78
2019-03-05T11:35:33.222Z,98749.23
2019-03-05T11:37:07.831Z,98730.02
2019-03-05T11:38:42.142Z,98749.06
2019-03-05T11:40:21.370Z,98750.70
2019-03-05T11:41:57.219Z,98752.63
2019-03-05T11:43:31.477Z,98752.03
2019-03-05T11:45:11.633Z,98750.64
2019-03-05T11:46:45.219Z,98760.11
2019-03-05T11:48:19.650Z,98766.23
2019-03-05T11:49:53.911Z,98762.56
2019-03-05T11:51:28.189Z,98781.02
2019-03-05T11:53:03.335Z,98777.88
2019-03-05T11:54:37.634Z,98765.24
2019-03-05T11:56:11.878Z,98772.27
2019-03-05T11:57:46.365Z,98776.33
2019-03-05T11:59:22.141Z,98774.31
2019-03-05T12:01:08.248Z,98783.47
2019-03-05T12:02:43.123Z,98780.06
2019-03-05T12:04:17.429Z,98768.55
2019-03-05T12:05:51.991Z,98780.78
2019-03-05T12:07:26.342Z,98785.21
2019-03-05T12:09:00.869Z,98791.36
2019-03-05T12:10:35.173Z,98790.94
2019-03-05T12:12:09.518Z,98786.64
2019-03-05T12:13:43.763Z,98787.76
2019-03-05T12:15:19.973Z,98783.27
2019-03-05T12:16:54.286Z,98776.05
2019-03-05T12:18:28.833Z,98786.83
2019-03-05T12:20:03.103Z,98772.13
2019-03-05T12:21:37.377Z,98785.01
2019-03-05T12:23:13.798Z,98776.61
2019-03-05T12:24:50.072Z,98782.69
2019-03-05T12:26:24.399Z,98787.23
2019-03-05T12:28:09.741Z,98795.73
2019-03-05T12:29:36.269Z,98782.64
2019-03-05T12:31:10.821Z,98780.95
2019-03-05T12:32:45.029Z,98784.95
2019-03-05T12:34:19.393Z,98790.47
2019-03-05T12:35:53.707Z,98784.25
2019-03-05T12:37:29.895Z,98800.20
2019-03-05T12:39:05.374Z,98796.84
2019-03-05T12:40:40.644Z,98806.72
2019-03-05T12:42:14.857Z,98804.58
2019-03-05T12:43:49.468Z,98803.46
2019-03-05T12:45:25.176Z,98800.97
2019-03-05T12:46:59.466Z,98795.80
2019-03-05T12:48:39.877Z,98796.55
2019-03-05T12:50:12.858Z,98799.31
2019-03-05T12:51:48.655Z,98805.34
2019-03-05T12:53:22.886Z,98806.64
2019-03-05T12:54:57.220Z,98809.73
2019-03-05T12:56:32.149Z,98804.69
2019-03-05T12:58:07.155Z,98797.41
2019-03-05T12:59:42.478Z,98815.92
2019-03-05T13:01:18.275Z,98812.34
2019-03-05T13:02:53.191Z,98815.05
